sensor_id;sensor_type;location;lat;lon;timestamp;temperature;humidity
52016;DHT22;38032;53.326;6.472;2023-01-31T00:00:13;5.30;99.90
52016;DHT22;38032;53.326;6.472;2023-01-31T00:02:39;5.20;99.90
52016;DHT22;38032;53.326;6.472;2023-01-31T00:05:05;5.20;99.90
52016;DHT22;38032;53.326;6.472;2023-01-31T00:07:31;5.10;99.90
52016;DHT22;38032;53.326;6.472;2023-01-31T00:09:57;5.00;99.90
52016;DHT22;38032;53.326;6.472;2023-01-31T00:12:23;5.00;99.90
52016;DHT22;38032;53.326;6.472;2023-01-31T00:14:49;4.90;99.90
52016;DHT22;38032;53.326;6.472;2023-01-31T00:17:15;4.80;99.90
52016;DHT22;38032;53.326;6.472;2023-01-31T00:19:40;4.90;99.90
52016;DHT22;38032;53.326;6.472;2023-01-31T00:22:06;4.80;99.90
52016;DHT22;38032;53.326;6.472;2023-01-31T00:24:32;4.80;99.90
52016;DHT22;38032;53.326;6.472;2023-01-31T00:26:58;4.80;99.90
52016;DHT22;38032;53.326;6.472;2023-01-31T00:29:24;4.80;99.90
52016;DHT22;38032;53.326;6.472;2023-01-31T00:31:50;4.70;99.90
52016;DHT22;38032;53.326;6.472;2023-01-31T00:34:16;4.70;99.90
52016;DHT22;38032;53.326;6.472;2023-01-31T00:36:42;4.70;99.90
52016;DHT22;38032;53.326;6.472;2023-01-31T00:39:09;4.70;99.90
52016;DHT22;38032;53.326;6.472;2023-01-31T00:41:36;4.70;99.90
52016;DHT22;38032;53.326;6.472;2023-01-31T00:44:03;4.70;99.90
52016;DHT22;38032;53.326;6.472;2023-01-31T00:46:29;4.70;99.90
52016;DHT22;38032;53.326;6.472;2023-01-31T00:48:56;4.70;99.90
52016;DHT22;38032;53.326;6.472;2023-01-31T00:51:23;4.60;99.90
52016;DHT22;38032;53.326;6.472;2023-01-31T00:53:49;4.60;99.90
52016;DHT22;38032;53.326;6.472;2023-01-31T00:56:18;4.60;99.90
52016;DHT22;38032;53.326;6.472;2023-01-31T00:58:44;4.50;99.90
52016;DHT22;38032;53.326;6.472;2023-01-31T01:01:13;4.50;99.90
52016;DHT22;38032;53.326;6.472;2023-01-31T01:03:40;4.40;99.90
52016;DHT22;38032;53.326;6.472;2023-01-31T01:06:06;4.40;99.90
52016;DHT22;38032;53.326;6.472;2023-01-31T01:08:33;4.40;99.90
52016;DHT22;38032;53.326;6.472;2023-01-31T01:11:12;4.40;99.90
52016;DHT22;38032;53.326;6.472;2023-01-31T01:13:38;4.40;99.90
52016;DHT22;38032;53.326;6.472;2023-01-31T01:16:11;4.30;99.90
52016;DHT22;38032;53.326;6.472;2023-01-31T01:18:37;4.30;99.90
52016;DHT22;38032;53.326;6.472;2023-01-31T01:21:08;4.20;99.90
52016;DHT22;38032;53.326;6.472;2023-01-31T01:23:35;4.20;99.90
52016;DHT22;38032;53.326;6.472;2023-01-31T01:26:01;4.20;99.90
52016;DHT22;38032;53.326;6.472;2023-01-31T01:28:27;4.20;99.90
52016;DHT22;38032;53.326;6.472;2023-01-31T01:30:53;4.20;99.90
52016;DHT22;38032;53.326;6.472;2023-01-31T01:33:19;4.20;99.90
52016;DHT22;38032;53.326;6.472;2023-01-31T01:35:44;4.20;99.90
52016;DHT22;38032;53.326;6.472;2023-01-31T01:38:10;4.20;99.90
52016;DHT22;38032;53.326;6.472;2023-01-31T01:40:37;4.20;99.90
52016;DHT22;38032;53.326;6.472;2023-01-31T01:43:03;4.30;99.90
52016;DHT22;38032;53.326;6.472;2023-01-31T01:45:29;4.30;99.90
52016;DHT22;38032;53.326;6.472;2023-01-31T01:47:59;4.40;99.90
52016;DHT22;38032;53.326;6.472;2023-01-31T01:50:35;4.40;99.90
52016;DHT22;38032;53.326;6.472;2023-01-31T01:53:08;4.50;99.90
52016;DHT22;38032;53.326;6.472;2023-01-31T01:55:46;4.50;99.90
52016;DHT22;38032;53.326;6.472;2023-01-31T01:58:17;4.60;99.90
52016;DHT22;38032;53.326;6.472;2023-01-31T02:00:45;4.60;99.90
52016;DHT22;38032;53.326;6.472;2023-01-31T02:03:12;4.70;99.90
52016;DHT22;38032;53.326;6.472;2023-01-31T02:05:45;4.70;99.90
52016;DHT22;38032;53.326;6.472;2023-01-31T02:08:13;4.80;99.90
52016;DHT22;38032;53.326;6.472;2023-01-31T02:10:46;4.80;99.90
52016;DHT22;38032;53.326;6.472;2023-01-31T02:13:14;4.90;99.90
52016;DHT22;38032;53.326;6.472;2023-01-31T02:15:40;4.90;99.90
52016;DHT22;38032;53.326;6.472;2023-01-31T02:18:07;5.00;99.90
52016;DHT22;38032;53.326;6.472;2023-01-31T02:26:41;5.00;99.90
52016;DHT22;38032;53.326;6.472;2023-01-31T02:29:39;5.10;99.90
52016;DHT22;38032;53.326;6.472;2023-01-31T02:34:49;5.20;99.90
52016;DHT22;38032;53.326;6.472;2023-01-31T02:37:39;5.20;99.90
52016;DHT22;38032;53.326;6.472;2023-01-31T02:43:53;5.20;99.90
52016;DHT22;38032;53.326;6.472;2023-01-31T02:49:40;5.30;99.90
52016;DHT22;38032;53.326;6.472;2023-01-31T02:52:19;5.30;99.90
52016;DHT22;38032;53.326;6.472;2023-01-31T02:57:45;5.30;99.90
52016;DHT22;38032;53.326;6.472;2023-01-31T03:00:14;5.30;99.90
52016;DHT22;38032;53.326;6.472;2023-01-31T03:02:40;5.30;99.90
52016;DHT22;38032;53.326;6.472;2023-01-31T03:05:06;5.30;99.90
52016;DHT22;38032;53.326;6.472;2023-01-31T03:07:34;5.40;99.90
52016;DHT22;38032;53.326;6.472;2023-01-31T03:12:47;5.40;99.90
52016;DHT22;38032;53.326;6.472;2023-01-31T03:15:33;5.50;99.90
52016;DHT22;38032;53.326;6.472;2023-01-31T03:18:23;5.50;99.90
52016;DHT22;38032;53.326;6.472;2023-01-31T03:20:58;5.50;99.90
52016;DHT22;38032;53.326;6.472;2023-01-31T03:23:28;5.50;99.90
52016;DHT22;38032;53.326;6.472;2023-01-31T03:25:59;5.60;99.90
52016;DHT22;38032;53.326;6.472;2023-01-31T03:28:30;5.60;99.90
52016;DHT22;38032;53.326;6.472;2023-01-31T03:31:07;5.60;99.90
52016;DHT22;38032;53.326;6.472;2023-01-31T03:33:38;5.60;99.90
52016;DHT22;38032;53.326;6.472;2023-01-31T03:39:09;5.60;99.90
52016;DHT22;38032;53.326;6.472;2023-01-31T03:41:44;5.60;99.90
52016;DHT22;38032;53.326;6.472;2023-01-31T03:44:18;5.60;99.90
52016;DHT22;38032;53.326;6.472;2023-01-31T03:46:52;5.60;99.90
52016;DHT22;38032;53.326;6.472;2023-01-31T03:49:21;5.60;99.90
52016;DHT22;38032;53.326;6.472;2023-01-31T03:51:53;5.60;99.90
52016;DHT22;38032;53.326;6.472;2023-01-31T03:54:25;5.60;99.90
52016;DHT22;38032;53.326;6.472;2023-01-31T03:56:58;5.70;99.90
52016;DHT22;38032;53.326;6.472;2023-01-31T03:59:28;5.80;99.90
52016;DHT22;38032;53.326;6.472;2023-01-31T04:01:57;5.80;99.90
52016;DHT22;38032;53.326;6.472;2023-01-31T04:04:31;5.90;99.90
52016;DHT22;38032;53.326;6.472;2023-01-31T04:07:00;6.00;99.90
52016;DHT22;38032;53.326;6.472;2023-01-31T04:09:26;5.80;99.90
52016;DHT22;38032;53.326;6.472;2023-01-31T04:11:52;5.90;99.90
52016;DHT22;38032;53.326;6.472;2023-01-31T04:14:18;5.90;99.90
52016;DHT22;38032;53.326;6.472;2023-01-31T04:16:44;5.90;99.90
52016;DHT22;38032;53.326;6.472;2023-01-31T04:19:10;6.00;99.90
52016;DHT22;38032;53.326;6.472;2023-01-31T04:21:36;6.00;99.90
52016;DHT22;38032;53.326;6.472;2023-01-31T04:24:02;6.00;99.90
52016;DHT22;38032;53.326;6.472;2023-01-31T04:26:28;6.00;99.90
52016;DHT22;38032;53.326;6.472;2023-01-31T04:28:53;6.00;99.90
52016;DHT22;38032;53.326;6.472;2023-01-31T04:31:19;6.10;99.90
52016;DHT22;38032;53.326;6.472;2023-01-31T04:33:45;6.10;99.90
52016;DHT22;38032;53.326;6.472;2023-01-31T04:36:11;6.20;99.90
52016;DHT22;38032;53.326;6.472;2023-01-31T04:38:37;6.20;99.90
52016;DHT22;38032;53.326;6.472;2023-01-31T04:41:03;6.10;99.90
52016;DHT22;38032;53.326;6.472;2023-01-31T04:43:29;6.20;99.90
52016;DHT22;38032;53.326;6.472;2023-01-31T04:45:54;6.20;99.90
52016;DHT22;38032;53.326;6.472;2023-01-31T04:48:20;6.20;99.90
52016;DHT22;38032;53.326;6.472;2023-01-31T04:50:46;6.10;99.90
52016;DHT22;38032;53.326;6.472;2023-01-31T04:53:12;6.30;99.90
52016;DHT22;38032;53.326;6.472;2023-01-31T04:55:38;6.20;99.90
52016;DHT22;38032;53.326;6.472;2023-01-31T04:58:04;6.20;99.90
52016;DHT22;38032;53.326;6.472;2023-01-31T05:00:29;6.20;99.90
52016;DHT22;38032;53.326;6.472;2023-01-31T05:02:55;6.30;99.90
52016;DHT22;38032;53.326;6.472;2023-01-31T05:05:21;6.30;99.90
52016;DHT22;38032;53.326;6.472;2023-01-31T05:07:47;6.30;99.90
52016;DHT22;38032;53.326;6.472;2023-01-31T05:10:13;6.40;99.90
52016;DHT22;38032;53.326;6.472;2023-01-31T05:12:39;6.30;99.90
52016;DHT22;38032;53.326;6.472;2023-01-31T05:15:05;6.30;99.90
52016;DHT22;38032;53.326;6.472;2023-01-31T05:17:33;6.30;99.90
52016;DHT22;38032;53.326;6.472;2023-01-31T05:19:59;6.30;99.90
52016;DHT22;38032;53.326;6.472;2023-01-31T05:22:25;6.40;99.90
52016;DHT22;38032;53.326;6.472;2023-01-31T05:24:51;6.50;99.90
52016;DHT22;38032;53.326;6.472;2023-01-31T05:27:18;6.40;99.90
52016;DHT22;38032;53.326;6.472;2023-01-31T05:29:44;6.50;99.90
52016;DHT22;38032;53.326;6.472;2023-01-31T05:32:10;6.50;99.90
52016;DHT22;38032;53.326;6.472;2023-01-31T05:34:36;6.50;99.90
52016;DHT22;38032;53.326;6.472;2023-01-31T05:37:03;6.50;99.90
52016;DHT22;38032;53.326;6.472;2023-01-31T05:39:29;6.50;99.90
52016;DHT22;38032;53.326;6.472;2023-01-31T05:41:55;6.50;99.90
52016;DHT22;38032;53.326;6.472;2023-01-31T05:44:22;6.50;99.90
52016;DHT22;38032;53.326;6.472;2023-01-31T05:46:48;6.50;99.90
52016;DHT22;38032;53.326;6.472;2023-01-31T05:49:14;6.50;99.90
52016;DHT22;38032;53.326;6.472;2023-01-31T05:51:40;6.50;99.90
52016;DHT22;38032;53.326;6.472;2023-01-31T05:54:07;6.60;99.90
52016;DHT22;38032;53.326;6.472;2023-01-31T05:56:33;6.50;99.90
52016;DHT22;38032;53.326;6.472;2023-01-31T05:58:59;6.60;99.90
52016;DHT22;38032;53.326;6.472;2023-01-31T06:01:28;6.50;99.90
52016;DHT22;38032;53.326;6.472;2023-01-31T06:03:53;6.50;99.90
52016;DHT22;38032;53.326;6.472;2023-01-31T06:06:20;6.50;99.90
52016;DHT22;38032;53.326;6.472;2023-01-31T06:08:46;6.50;99.90
52016;DHT22;38032;53.326;6.472;2023-01-31T06:11:12;6.60;99.90
52016;DHT22;38032;53.326;6.472;2023-01-31T06:13:40;6.60;99.90
52016;DHT22;38032;53.326;6.472;2023-01-31T06:16:08;6.60;99.90
52016;DHT22;38032;53.326;6.472;2023-01-31T06:18:34;6.60;99.90
52016;DHT22;38032;53.326;6.472;2023-01-31T06:21:00;6.60;99.90
52016;DHT22;38032;53.326;6.472;2023-01-31T06:23:26;6.60;99.90
52016;DHT22;38032;53.326;6.472;2023-01-31T06:25:52;6.60;99.90
52016;DHT22;38032;53.326;6.472;2023-01-31T06:28:19;6.60;99.90
52016;DHT22;38032;53.326;6.472;2023-01-31T06:30:45;6.60;99.90
52016;DHT22;38032;53.326;6.472;2023-01-31T06:33:11;6.70;99.90
52016;DHT22;38032;53.326;6.472;2023-01-31T06:35:37;6.70;99.90
52016;DHT22;38032;53.326;6.472;2023-01-31T06:38:04;6.70;99.90
52016;DHT22;38032;53.326;6.472;2023-01-31T06:40:30;6.70;99.90
52016;DHT22;38032;53.326;6.472;2023-01-31T06:42:56;6.70;99.90
52016;DHT22;38032;53.326;6.472;2023-01-31T06:45:23;6.70;99.90
52016;DHT22;38032;53.326;6.472;2023-01-31T06:47:49;6.70;99.90
52016;DHT22;38032;53.326;6.472;2023-01-31T06:50:15;6.80;99.90
52016;DHT22;38032;53.326;6.472;2023-01-31T06:52:41;6.80;99.90
52016;DHT22;38032;53.326;6.472;2023-01-31T06:55:07;6.80;99.90
52016;DHT22;38032;53.326;6.472;2023-01-31T06:57:33;6.80;99.90
52016;DHT22;38032;53.326;6.472;2023-01-31T06:59:59;6.80;99.90
52016;DHT22;38032;53.326;6.472;2023-01-31T07:02:25;6.90;99.90
52016;DHT22;38032;53.326;6.472;2023-01-31T07:04:51;6.90;99.90
52016;DHT22;38032;53.326;6.472;2023-01-31T07:07:17;6.90;99.90
52016;DHT22;38032;53.326;6.472;2023-01-31T07:09:43;6.90;99.90
52016;DHT22;38032;53.326;6.472;2023-01-31T07:12:09;6.90;99.90
52016;DHT22;38032;53.326;6.472;2023-01-31T07:14:35;6.90;99.90
52016;DHT22;38032;53.326;6.472;2023-01-31T07:17:01;6.90;99.90
52016;DHT22;38032;53.326;6.472;2023-01-31T07:19:26;7.00;99.90
52016;DHT22;38032;53.326;6.472;2023-01-31T07:21:52;7.00;99.90
52016;DHT22;38032;53.326;6.472;2023-01-31T07:24:18;7.00;99.90
52016;DHT22;38032;53.326;6.472;2023-01-31T07:26:44;7.00;99.90
52016;DHT22;38032;53.326;6.472;2023-01-31T07:29:10;7.00;99.90
52016;DHT22;38032;53.326;6.472;2023-01-31T07:31:37;7.10;99.90
52016;DHT22;38032;53.326;6.472;2023-01-31T07:34:03;7.00;99.90
52016;DHT22;38032;53.326;6.472;2023-01-31T07:36:29;7.10;99.90
52016;DHT22;38032;53.326;6.472;2023-01-31T07:38:57;7.10;99.90
52016;DHT22;38032;53.326;6.472;2023-01-31T07:41:24;7.10;99.90
52016;DHT22;38032;53.326;6.472;2023-01-31T07:43:50;7.00;99.90
52016;DHT22;38032;53.326;6.472;2023-01-31T07:46:17;7.10;99.90
52016;DHT22;38032;53.326;6.472;2023-01-31T07:48:43;7.10;99.90
52016;DHT22;38032;53.326;6.472;2023-01-31T07:51:09;7.20;99.90
52016;DHT22;38032;53.326;6.472;2023-01-31T07:53:37;7.20;99.90
52016;DHT22;38032;53.326;6.472;2023-01-31T07:56:15;7.20;99.90
52016;DHT22;38032;53.326;6.472;2023-01-31T07:58:43;7.20;99.90
52016;DHT22;38032;53.326;6.472;2023-01-31T08:01:13;7.30;99.90
52016;DHT22;38032;53.326;6.472;2023-01-31T08:03:58;7.30;99.90
52016;DHT22;38032;53.326;6.472;2023-01-31T08:06:25;7.30;99.90
52016;DHT22;38032;53.326;6.472;2023-01-31T08:08:52;7.30;99.90
52016;DHT22;38032;53.326;6.472;2023-01-31T08:11:17;7.30;99.90
52016;DHT22;38032;53.326;6.472;2023-01-31T08:13:43;7.30;99.90
52016;DHT22;38032;53.326;6.472;2023-01-31T08:16:09;7.30;99.90
52016;DHT22;38032;53.326;6.472;2023-01-31T08:18:36;7.40;99.90
52016;DHT22;38032;53.326;6.472;2023-01-31T08:21:03;7.30;99.90
52016;DHT22;38032;53.326;6.472;2023-01-31T08:23:29;7.30;99.90
52016;DHT22;38032;53.326;6.472;2023-01-31T08:26:03;7.40;99.90
52016;DHT22;38032;53.326;6.472;2023-01-31T08:28:30;7.40;99.90
52016;DHT22;38032;53.326;6.472;2023-01-31T08:30:56;7.40;99.90
52016;DHT22;38032;53.326;6.472;2023-01-31T08:33:22;7.40;99.90
52016;DHT22;38032;53.326;6.472;2023-01-31T08:35:48;7.40;99.90
52016;DHT22;38032;53.326;6.472;2023-01-31T08:38:15;7.40;99.90
52016;DHT22;38032;53.326;6.472;2023-01-31T08:40:40;7.50;99.90
52016;DHT22;38032;53.326;6.472;2023-01-31T08:43:08;7.50;99.90
52016;DHT22;38032;53.326;6.472;2023-01-31T08:45:34;7.60;99.90
52016;DHT22;38032;53.326;6.472;2023-01-31T08:48:01;7.60;99.90
52016;DHT22;38032;53.326;6.472;2023-01-31T08:50:29;7.70;99.90
52016;DHT22;38032;53.326;6.472;2023-01-31T08:52:59;7.70;99.90
52016;DHT22;38032;53.326;6.472;2023-01-31T08:55:27;7.70;99.90
52016;DHT22;38032;53.326;6.472;2023-01-31T08:57:54;7.80;99.90
52016;DHT22;38032;53.326;6.472;2023-01-31T09:00:20;7.80;99.90
52016;DHT22;38032;53.326;6.472;2023-01-31T09:02:58;7.80;99.90
52016;DHT22;38032;53.326;6.472;2023-01-31T09:05:26;7.90;99.90
52016;DHT22;38032;53.326;6.472;2023-01-31T09:07:52;7.90;99.90
52016;DHT22;38032;53.326;6.472;2023-01-31T09:10:19;7.90;99.90
52016;DHT22;38032;53.326;6.472;2023-01-31T09:12:46;7.90;99.90
52016;DHT22;38032;53.326;6.472;2023-01-31T09:15:12;8.00;99.90
52016;DHT22;38032;53.326;6.472;2023-01-31T09:17:39;8.00;99.90
52016;DHT22;38032;53.326;6.472;2023-01-31T09:20:06;8.00;99.90
52016;DHT22;38032;53.326;6.472;2023-01-31T09:22:34;8.00;99.90
52016;DHT22;38032;53.326;6.472;2023-01-31T09:25:00;8.00;99.90
52016;DHT22;38032;53.326;6.472;2023-01-31T09:27:27;8.10;99.90
52016;DHT22;38032;53.326;6.472;2023-01-31T09:29:53;8.10;99.90
52016;DHT22;38032;53.326;6.472;2023-01-31T09:32:19;8.10;99.90
52016;DHT22;38032;53.326;6.472;2023-01-31T09:34:46;8.10;99.90
52016;DHT22;38032;53.326;6.472;2023-01-31T09:37:14;8.20;99.90
52016;DHT22;38032;53.326;6.472;2023-01-31T09:39:40;8.20;99.90
52016;DHT22;38032;53.326;6.472;2023-01-31T09:44:42;8.20;99.90
52016;DHT22;38032;53.326;6.472;2023-01-31T09:47:13;8.20;99.90
52016;DHT22;38032;53.326;6.472;2023-01-31T09:49:49;8.20;99.90
52016;DHT22;38032;53.326;6.472;2023-01-31T09:52:16;8.20;99.90
52016;DHT22;38032;53.326;6.472;2023-01-31T09:54:42;8.20;99.90
52016;DHT22;38032;53.326;6.472;2023-01-31T09:59:45;8.30;99.90
52016;DHT22;38032;53.326;6.472;2023-01-31T10:02:30;8.30;99.90
52016;DHT22;38032;53.326;6.472;2023-01-31T10:05:15;8.30;99.90
52016;DHT22;38032;53.326;6.472;2023-01-31T10:07:58;8.30;99.90
52016;DHT22;38032;53.326;6.472;2023-01-31T10:10:37;8.30;99.90
52016;DHT22;38032;53.326;6.472;2023-01-31T10:13:11;8.30;99.90
52016;DHT22;38032;53.326;6.472;2023-01-31T10:15:43;8.30;99.90
52016;DHT22;38032;53.326;6.472;2023-01-31T10:18:17;8.30;99.90
52016;DHT22;38032;53.326;6.472;2023-01-31T10:20:53;8.30;99.90
52016;DHT22;38032;53.326;6.472;2023-01-31T10:23:27;8.30;99.90
52016;DHT22;38032;53.326;6.472;2023-01-31T10:25:59;8.30;99.90
52016;DHT22;38032;53.326;6.472;2023-01-31T10:33:56;8.30;99.90
52016;DHT22;38032;53.326;6.472;2023-01-31T10:39:00;8.20;99.90
52016;DHT22;38032;53.326;6.472;2023-01-31T10:41:35;8.20;99.90
52016;DHT22;38032;53.326;6.472;2023-01-31T10:44:14;8.20;99.90
52016;DHT22;38032;53.326;6.472;2023-01-31T10:46:42;8.20;99.90
52016;DHT22;38032;53.326;6.472;2023-01-31T10:49:09;8.20;99.90
52016;DHT22;38032;53.326;6.472;2023-01-31T10:57:13;8.20;99.90
52016;DHT22;38032;53.326;6.472;2023-01-31T10:59:43;8.20;99.90
52016;DHT22;38032;53.326;6.472;2023-01-31T11:02:21;8.30;99.90
52016;DHT22;38032;53.326;6.472;2023-01-31T11:04:49;8.30;99.90
52016;DHT22;38032;53.326;6.472;2023-01-31T11:07:16;8.40;99.90
52016;DHT22;38032;53.326;6.472;2023-01-31T11:09:47;8.40;99.90
52016;DHT22;38032;53.326;6.472;2023-01-31T11:12:14;8.40;99.90
52016;DHT22;38032;53.326;6.472;2023-01-31T11:14:40;8.50;99.90
52016;DHT22;38032;53.326;6.472;2023-01-31T11:17:13;8.50;99.90
52016;DHT22;38032;53.326;6.472;2023-01-31T11:19:47;8.50;99.90
52016;DHT22;38032;53.326;6.472;2023-01-31T11:22:27;8.50;99.90
52016;DHT22;38032;53.326;6.472;2023-01-31T11:24:55;8.50;99.90
52016;DHT22;38032;53.326;6.472;2023-01-31T11:29:59;8.50;99.90
52016;DHT22;38032;53.326;6.472;2023-01-31T11:32:29;8.50;99.90
52016;DHT22;38032;53.326;6.472;2023-01-31T11:34:58;8.60;99.90
52016;DHT22;38032;53.326;6.472;2023-01-31T11:37:25;8.60;99.90
52016;DHT22;38032;53.326;6.472;2023-01-31T11:39:56;8.60;99.90
52016;DHT22;38032;53.326;6.472;2023-01-31T11:42:22;8.60;99.90
52016;DHT22;38032;53.326;6.472;2023-01-31T11:45:00;8.70;99.90
52016;DHT22;38032;53.326;6.472;2023-01-31T11:47:41;8.70;99.90
52016;DHT22;38032;53.326;6.472;2023-01-31T11:52:45;8.90;99.90
52016;DHT22;38032;53.326;6.472;2023-01-31T11:55:16;8.90;99.90
52016;DHT22;38032;53.326;6.472;2023-01-31T11:57:42;8.90;99.90
52016;DHT22;38032;53.326;6.472;2023-01-31T12:00:23;8.90;99.90
52016;DHT22;38032;53.326;6.472;2023-01-31T12:02:58;9.00;99.90
52016;DHT22;38032;53.326;6.472;2023-01-31T12:05:38;9.00;99.90
52016;DHT22;38032;53.326;6.472;2023-01-31T12:08:10;9.10;99.90
52016;DHT22;38032;53.326;6.472;2023-01-31T12:10:50;9.10;99.90
52016;DHT22;38032;53.326;6.472;2023-01-31T12:13:18;9.20;99.90
52016;DHT22;38032;53.326;6.472;2023-01-31T12:15:47;9.30;99.90
52016;DHT22;38032;53.326;6.472;2023-01-31T12:18:24;9.30;99.90
52016;DHT22;38032;53.326;6.472;2023-01-31T12:23:46;9.40;99.90
52016;DHT22;38032;53.326;6.472;2023-01-31T12:32:01;9.50;99.90
52016;DHT22;38032;53.326;6.472;2023-01-31T12:34:54;9.50;99.90
52016;DHT22;38032;53.326;6.472;2023-01-31T12:42:55;9.60;99.90
52016;DHT22;38032;53.326;6.472;2023-01-31T12:48:25;9.60;99.90
52016;DHT22;38032;53.326;6.472;2023-01-31T12:53:50;9.60;99.90
52016;DHT22;38032;53.326;6.472;2023-01-31T12:59:34;9.70;99.90
52016;DHT22;38032;53.326;6.472;2023-01-31T13:04:50;9.70;99.90
52016;DHT22;38032;53.326;6.472;2023-01-31T13:07:34;9.70;99.90
52016;DHT22;38032;53.326;6.472;2023-01-31T13:10:05;9.70;99.90
52016;DHT22;38032;53.326;6.472;2023-01-31T13:12:33;9.70;99.90
52016;DHT22;38032;53.326;6.472;2023-01-31T13:15:05;9.70;99.90
52016;DHT22;38032;53.326;6.472;2023-01-31T13:17:36;9.70;99.90
52016;DHT22;38032;53.326;6.472;2023-01-31T13:22:52;9.80;99.90
52016;DHT22;38032;53.326;6.472;2023-01-31T13:28:05;9.80;99.90
52016;DHT22;38032;53.326;6.472;2023-01-31T13:30:42;9.90;99.90
52016;DHT22;38032;53.326;6.472;2023-01-31T13:36:02;9.90;99.90
52016;DHT22;38032;53.326;6.472;2023-01-31T13:38:38;9.90;99.90
52016;DHT22;38032;53.326;6.472;2023-01-31T13:41:09;9.90;99.90
52016;DHT22;38032;53.326;6.472;2023-01-31T13:43:38;9.90;99.90
52016;DHT22;38032;53.326;6.472;2023-01-31T13:46:07;9.90;99.90
52016;DHT22;38032;53.326;6.472;2023-01-31T13:48:44;10.00;99.90
52016;DHT22;38032;53.326;6.472;2023-01-31T13:53:48;10.10;99.90
52016;DHT22;38032;53.326;6.472;2023-01-31T13:56:21;10.20;99.90
52016;DHT22;38032;53.326;6.472;2023-01-31T13:58:49;10.20;99.90
52016;DHT22;38032;53.326;6.472;2023-01-31T14:01:21;10.30;99.90
52016;DHT22;38032;53.326;6.472;2023-01-31T14:09:28;10.10;99.90
52016;DHT22;38032;53.326;6.472;2023-01-31T14:11:56;10.00;99.90
52016;DHT22;38032;53.326;6.472;2023-01-31T14:17:12;9.80;99.90
52016;DHT22;38032;53.326;6.472;2023-01-31T14:22:16;9.80;99.90
52016;DHT22;38032;53.326;6.472;2023-01-31T14:27:16;9.80;99.90
52016;DHT22;38032;53.326;6.472;2023-01-31T14:29:45;9.70;99.90
52016;DHT22;38032;53.326;6.472;2023-01-31T14:32:15;9.70;99.90
52016;DHT22;38032;53.326;6.472;2023-01-31T14:34:46;9.70;99.90
52016;DHT22;38032;53.326;6.472;2023-01-31T14:37:17;9.60;99.90
52016;DHT22;38032;53.326;6.472;2023-01-31T14:42:41;9.70;99.90
52016;DHT22;38032;53.326;6.472;2023-01-31T14:50:45;9.60;99.90
52016;DHT22;38032;53.326;6.472;2023-01-31T14:53:33;9.60;99.90
52016;DHT22;38032;53.326;6.472;2023-01-31T14:58:32;9.60;99.90
52016;DHT22;38032;53.326;6.472;2023-01-31T15:01:04;9.50;99.90
52016;DHT22;38032;53.326;6.472;2023-01-31T15:03:47;9.50;99.90
52016;DHT22;38032;53.326;6.472;2023-01-31T15:06:37;9.40;99.90
52016;DHT22;38032;53.326;6.472;2023-01-31T15:11:42;9.40;99.90
52016;DHT22;38032;53.326;6.472;2023-01-31T15:14:28;9.30;99.90
52016;DHT22;38032;53.326;6.472;2023-01-31T15:19:29;9.30;99.90
52016;DHT22;38032;53.326;6.472;2023-01-31T15:22:03;9.30;99.90
52016;DHT22;38032;53.326;6.472;2023-01-31T15:24:43;9.30;99.90
52016;DHT22;38032;53.326;6.472;2023-01-31T15:27:29;9.20;99.90
52016;DHT22;38032;53.326;6.472;2023-01-31T15:30:05;9.10;99.90
52016;DHT22;38032;53.326;6.472;2023-01-31T15:32:39;9.10;99.90
52016;DHT22;38032;53.326;6.472;2023-01-31T15:35:31;8.90;99.90
52016;DHT22;38032;53.326;6.472;2023-01-31T15:38:03;8.90;99.90
52016;DHT22;38032;53.326;6.472;2023-01-31T15:40:29;8.80;99.90
52016;DHT22;38032;53.326;6.472;2023-01-31T15:43:15;8.70;99.90
52016;DHT22;38032;53.326;6.472;2023-01-31T15:45:41;8.70;99.90
52016;DHT22;38032;53.326;6.472;2023-01-31T15:48:13;8.70;99.90
52016;DHT22;38032;53.326;6.472;2023-01-31T15:53:16;8.60;99.90
52016;DHT22;38032;53.326;6.472;2023-01-31T15:55:45;8.50;99.90
52016;DHT22;38032;53.326;6.472;2023-01-31T15:58:21;8.50;99.90
52016;DHT22;38032;53.326;6.472;2023-01-31T16:00:51;8.40;99.90
52016;DHT22;38032;53.326;6.472;2023-01-31T16:03:21;8.40;99.90
52016;DHT22;38032;53.326;6.472;2023-01-31T16:05:51;8.30;99.90
52016;DHT22;38032;53.326;6.472;2023-01-31T16:08:31;8.30;99.90
52016;DHT22;38032;53.326;6.472;2023-01-31T16:11:00;8.20;99.90
52016;DHT22;38032;53.326;6.472;2023-01-31T16:13:29;8.20;99.90
52016;DHT22;38032;53.326;6.472;2023-01-31T16:15:56;8.10;99.90
52016;DHT22;38032;53.326;6.472;2023-01-31T16:18:23;8.00;99.90
52016;DHT22;38032;53.326;6.472;2023-01-31T16:20:52;8.00;99.90
52016;DHT22;38032;53.326;6.472;2023-01-31T16:23:24;7.90;99.90
52016;DHT22;38032;53.326;6.472;2023-01-31T16:26:07;7.80;99.90
52016;DHT22;38032;53.326;6.472;2023-01-31T16:28:38;7.80;99.90
52016;DHT22;38032;53.326;6.472;2023-01-31T16:31:08;7.70;99.90
52016;DHT22;38032;53.326;6.472;2023-01-31T16:33:35;7.70;99.90
52016;DHT22;38032;53.326;6.472;2023-01-31T16:36:08;7.60;99.90
52016;DHT22;38032;53.326;6.472;2023-01-31T16:38:35;7.60;99.90
52016;DHT22;38032;53.326;6.472;2023-01-31T16:41:02;7.50;99.90
52016;DHT22;38032;53.326;6.472;2023-01-31T16:43:34;7.50;99.90
52016;DHT22;38032;53.326;6.472;2023-01-31T16:46:04;7.40;99.90
52016;DHT22;38032;53.326;6.472;2023-01-31T16:48:37;7.40;99.90
52016;DHT22;38032;53.326;6.472;2023-01-31T16:54:21;7.30;99.90
52016;DHT22;38032;53.326;6.472;2023-01-31T16:59:46;7.20;99.90
52016;DHT22;38032;53.326;6.472;2023-01-31T17:02:21;7.20;99.90
52016;DHT22;38032;53.326;6.472;2023-01-31T17:04:47;7.10;99.90
52016;DHT22;38032;53.326;6.472;2023-01-31T17:09:44;7.10;99.90
52016;DHT22;38032;53.326;6.472;2023-01-31T17:12:18;7.10;99.90
52016;DHT22;38032;53.326;6.472;2023-01-31T17:14:44;7.10;99.90
52016;DHT22;38032;53.326;6.472;2023-01-31T17:17:11;7.00;99.90
52016;DHT22;38032;53.326;6.472;2023-01-31T17:19:37;7.00;99.90
52016;DHT22;38032;53.326;6.472;2023-01-31T17:22:03;7.00;99.90
52016;DHT22;38032;53.326;6.472;2023-01-31T17:24:30;7.00;99.90
52016;DHT22;38032;53.326;6.472;2023-01-31T17:26:56;7.00;99.90
52016;DHT22;38032;53.326;6.472;2023-01-31T17:29:22;7.00;99.90
52016;DHT22;38032;53.326;6.472;2023-01-31T17:31:50;7.00;99.90
52016;DHT22;38032;53.326;6.472;2023-01-31T17:34:16;6.90;99.90
52016;DHT22;38032;53.326;6.472;2023-01-31T17:36:43;6.90;99.90
52016;DHT22;38032;53.326;6.472;2023-01-31T17:39:09;6.80;99.90
52016;DHT22;38032;53.326;6.472;2023-01-31T17:41:36;6.80;99.90
52016;DHT22;38032;53.326;6.472;2023-01-31T17:44:04;6.80;99.90
52016;DHT22;38032;53.326;6.472;2023-01-31T17:46:31;6.70;99.90
52016;DHT22;38032;53.326;6.472;2023-01-31T17:48:57;6.70;99.90
52016;DHT22;38032;53.326;6.472;2023-01-31T17:51:23;6.70;99.90
52016;DHT22;38032;53.326;6.472;2023-01-31T17:53:49;6.70;99.90
52016;DHT22;38032;53.326;6.472;2023-01-31T17:56:16;6.70;99.90
52016;DHT22;38032;53.326;6.472;2023-01-31T17:58:43;6.70;99.90
52016;DHT22;38032;53.326;6.472;2023-01-31T18:01:09;6.70;99.90
52016;DHT22;38032;53.326;6.472;2023-01-31T18:03:36;6.70;99.90